No.3tokuyomaru — JD3132 — position and weather

sailwx.info

Track history (hours):
 
Tides and Currents Weather Stations Pressure Air Temp Water Temp Dewpoint Dewpoint Depression Visibility Wind Speed Wind Dir Waves Ship Positions

No.3tokuyomaru

Last reported at 2015-Aug-28 00:32 UTC. Time now 2015-Aug-29 03:05 UTC.
Position N 34°10' E 134°59'.

Length 67 m; draft 4.6 m.

Type: Tanker. MMSI: 431002151.

Date/timePositionNaut miles runAvg speedWind from/ knotsBaromVisibWave heightAir tempDewpointWater temp
2015-Aug-28 00:32N 34°10' E 134°59'26011.2
2015-Aug-27 01:27N 34°59' E 140°09'6310.5
2015-Aug-26 19:24N 35°55' E 140°45'3 3.3
2015-Aug-26 18:33N 35°57' E 140°42'0 0.0
2015-Aug-26 17:33N 35°57' E 140°42'0 0.0
2015-Aug-26 16:30N 35°57' E 140°42'0 0.0
2015-Aug-26 14:17N 35°57' E 140°42'0 0.0
2015-Aug-26 13:20N 35°57' E 140°42'0 0.1
2015-Aug-26 12:27N 35°57' E 140°42'0 0.0
2015-Aug-26 11:29N 35°57' E 140°42'0 0.0
2015-Aug-26 09:20N 35°57' E 140°42'59 4.8
2015-Aug-25 21:05N 35°02' E 140°13'610.9
2015-Aug-25 20:32N 34°59' E 140°07'19 8.9
2015-Aug-25 18:25N 34°55' E 139°45'1112.7
2015-Aug-25 17:33N 35°06' E 139°45'1212.5
2015-Aug-25 16:34N 35°18' E 139°44'1110.9
2015-Aug-25 15:34N 35°28' E 139°49'4 4.0
2015-Aug-25 14:34N 35°28' E 139°54'0 0.0
2015-Aug-25 13:33N 35°28' E 139°54'0 0.0
2015-Aug-25 12:33N 35°28' E 139°54'0 0.0
2015-Aug-25 11:33N 35°28' E 139°54'0 0.0
2015-Aug-25 10:33N 35°28' E 139°54'0 0.0
2015-Aug-25 09:33N 35°28' E 139°54'0 0.0
2015-Aug-25 08:33N 35°28' E 139°54'0 0.0
2015-Aug-25 07:33N 35°28' E 139°54'0 0.0
2015-Aug-25 06:33N 35°28' E 139°54'0 0.0
2015-Aug-25 05:27N 35°28' E 139°54'0 0.0
2015-Aug-25 04:33N 35°28' E 139°54'0 0.0
2015-Aug-25 03:27N 35°28' E 139°54'0 0.0
2015-Aug-25 02:33N 35°28' E 139°54'0 0.0
2015-Aug-25 01:33N 35°28' E 139°54'0 0.0
2015-Aug-25 00:27N 35°28' E 139°54'0 0.0
2015-Aug-24 23:33N 35°28' E 139°54'0 0.0
2015-Aug-24 22:33N 35°28' E 139°54'0 0.0
2015-Aug-24 21:30N 35°28' E 139°54'0 0.0
2015-Aug-24 20:33N 35°28' E 139°54'0 0.0
2015-Aug-24 19:33N 35°28' E 139°54'0 0.0
2015-Aug-24 18:33N 35°28' E 139°54'0 0.0
2015-Aug-24 17:33N 35°28' E 139°54'0 0.0
2015-Aug-24 16:33N 35°28' E 139°54'0 0.0
2015-Aug-24 15:33N 35°28' E 139°54'0 0.0
2015-Aug-24 14:33N 35°28' E 139°54'0 0.0
2015-Aug-24 13:30N 35°28' E 139°54'0 0.0
2015-Aug-24 12:33N 35°28' E 139°54'0 0.0
2015-Aug-24 11:33N 35°28' E 139°54'0 0.0
2015-Aug-24 10:30N 35°28' E 139°54'0 0.0
2015-Aug-24 09:33N 35°28' E 139°54'0 0.0
2015-Aug-24 08:33N 35°28' E 139°54'0 0.0
2015-Aug-24 07:33N 35°28' E 139°54'0 0.0
2015-Aug-24 06:33N 35°28' E 139°54'0 0.0
2015-Aug-24 05:33N 35°28' E 139°54'0 0.0
2015-Aug-24 04:27N 35°28' E 139°54'0 0.0
2015-Aug-24 03:33N 35°28' E 139°54'0 0.0
2015-Aug-24 02:33N 35°28' E 139°54'0 0.0
2015-Aug-24 01:33N 35°28' E 139°54'0 0.0
2015-Aug-24 00:33N 35°28' E 139°54'0 0.0
2015-Aug-23 23:33N 35°28' E 139°54'0 0.0
2015-Aug-23 22:33N 35°28' E 139°54'0 0.0
2015-Aug-23 21:33N 35°28' E 139°54'0 0.0
2015-Aug-23 20:27N 35°28' E 139°54'0 0.0
2015-Aug-23 19:33N 35°28' E 139°54'0 0.0
2015-Aug-23 18:33N 35°28' E 139°54'0 0.0
2015-Aug-23 17:33N 35°28' E 139°54'0 0.0
2015-Aug-23 16:30N 35°28' E 139°54'0 0.0
2015-Aug-23 15:33N 35°28' E 139°54'0 0.0
2015-Aug-23 14:30N 35°28' E 139°54'0 0.0
2015-Aug-23 13:33N 35°28' E 139°54'0 0.0
2015-Aug-23 12:33N 35°28' E 139°54'0 0.0
2015-Aug-23 11:33N 35°28' E 139°54'0 0.0
2015-Aug-23 10:33N 35°28' E 139°54'0 0.0
2015-Aug-23 09:27N 35°28' E 139°54'0 0.0
2015-Aug-23 08:33N 35°28' E 139°54'0 0.0
2015-Aug-23 07:33N 35°28' E 139°54'0 0.0
2015-Aug-23 06:30N 35°28' E 139°54'0 0.0
2015-Aug-23 05:33N 35°28' E 139°54'0 0.0
2015-Aug-23 04:27N 35°28' E 139°54'0 0.0
2015-Aug-23 03:18N 35°28' E 139°54'0 0.0
2015-Aug-23 02:33N 35°28' E 139°54'0 0.0
2015-Aug-23 01:33N 35°28' E 139°54'0 0.0
2015-Aug-23 00:33N 35°28' E 139°54'0 0.0
2015-Aug-22 23:33N 35°28' E 139°54'0 0.0
2015-Aug-22 22:18N 35°28' E 139°54'0 0.0
2015-Aug-22 21:27N 35°28' E 139°54'0 0.0
2015-Aug-22 20:33N 35°28' E 139°54'0 0.0
2015-Aug-22 19:27N 35°28' E 139°54'0 0.0
2015-Aug-22 18:33N 35°28' E 139°54'0 0.0
2015-Aug-22 17:33N 35°28' E 139°54'0 0.0
2015-Aug-22 16:33N 35°28' E 139°54'0 0.0
2015-Aug-22 15:33N 35°28' E 139°54'0 0.0
2015-Aug-22 14:33N 35°28' E 139°54'0 0.1
2015-Aug-22 13:33N 35°28' E 139°54'0 0.1
2015-Aug-22 12:33N 35°28' E 139°54'0 0.0
2015-Aug-22 11:33N 35°28' E 139°54'0 0.1
2015-Aug-22 10:27N 35°28' E 139°54'0 0.0
2015-Aug-22 09:33N 35°28' E 139°54'0 0.0
2015-Aug-22 08:33N 35°28' E 139°54'0 0.0
2015-Aug-22 07:33N 35°28' E 139°54'0 0.2
2015-Aug-22 06:33N 35°28' E 139°54'7 6.9
2015-Aug-22 05:33N 35°31' E 139°46'0 0.0
2015-Aug-22 04:33N 35°31' E 139°46'0 0.0
2015-Aug-22 03:33N 35°31' E 139°46'0 0.0
2015-Aug-22 02:33N 35°31' E 139°46'0 0.0
2015-Aug-22 01:33N 35°31' E 139°46'0 0.0
2015-Aug-22 00:33N 35°31' E 139°46'0 0.0
2015-Aug-21 23:33N 35°31' E 139°46'2 1.7
2015-Aug-21 22:33N 35°30' E 139°48'1 1.2
2015-Aug-21 21:33N 35°29' E 139°49'0 0.0
2015-Aug-21 20:33N 35°29' E 139°49'0 0.0
2015-Aug-21 19:33N 35°29' E 139°49'0 0.0
2015-Aug-21 18:33N 35°29' E 139°49'0 0.0
2015-Aug-21 17:33N 35°29' E 139°49'0 0.0
2015-Aug-21 16:33N 35°29' E 139°49'0 0.0
2015-Aug-21 15:33N 35°29' E 139°49'0 0.0
2015-Aug-21 14:33N 35°29' E 139°49'0 0.0
2015-Aug-21 13:33N 35°29' E 139°49'0 0.0
2015-Aug-21 12:33N 35°29' E 139°49'0 0.0
2015-Aug-21 11:33N 35°29' E 139°49'0 0.3
2015-Aug-21 10:33N 35°29' E 139°49'1211.8
2015-Aug-21 09:33N 35°18' E 139°45'1211.8
2015-Aug-21 08:34N 35°06' E 139°44'  
Track history (hours):
 
Tides and Currents Weather Stations Pressure Air Temp Water Temp Dewpoint Dewpoint Depression Visibility Wind Speed Wind Dir Waves Ship Positions

No.3tokuyomaru

Last reported at 2015-Aug-28 00:32 UTC. Time now 2015-Aug-29 03:05 UTC.
Position N 34°10' E 134°59'.

Length 67 m; draft 4.6 m.

Type: Tanker. MMSI: 431002151.

Date/timePositionNaut miles runAvg speedWind from/ knotsBaromVisibWave heightAir tempDewpointWater temp
2015-Aug-28 00:32N 34°10' E 134°59'26011.2
2015-Aug-27 01:27N 34°59' E 140°09'6310.5
2015-Aug-26 19:24N 35°55' E 140°45'3 3.3
2015-Aug-26 18:33N 35°57' E 140°42'0 0.0
2015-Aug-26 17:33N 35°57' E 140°42'0 0.0
2015-Aug-26 16:30N 35°57' E 140°42'0 0.0
2015-Aug-26 14:17N 35°57' E 140°42'0 0.0
2015-Aug-26 13:20N 35°57' E 140°42'0 0.1
2015-Aug-26 12:27N 35°57' E 140°42'0 0.0
2015-Aug-26 11:29N 35°57' E 140°42'0 0.0
2015-Aug-26 09:20N 35°57' E 140°42'59 4.8
2015-Aug-25 21:05N 35°02' E 140°13'610.9
2015-Aug-25 20:32N 34°59' E 140°07'19 8.9
2015-Aug-25 18:25N 34°55' E 139°45'1112.7
2015-Aug-25 17:33N 35°06' E 139°45'1212.5
2015-Aug-25 16:34N 35°18' E 139°44'1110.9
2015-Aug-25 15:34N 35°28' E 139°49'4 4.0
2015-Aug-25 14:34N 35°28' E 139°54'0 0.0
2015-Aug-25 13:33N 35°28' E 139°54'0 0.0
2015-Aug-25 12:33N 35°28' E 139°54'0 0.0
2015-Aug-25 11:33N 35°28' E 139°54'0 0.0
2015-Aug-25 10:33N 35°28' E 139°54'0 0.0
2015-Aug-25 09:33N 35°28' E 139°54'0 0.0
2015-Aug-25 08:33N 35°28' E 139°54'0 0.0
2015-Aug-25 07:33N 35°28' E 139°54'0 0.0
2015-Aug-25 06:33N 35°28' E 139°54'0 0.0
2015-Aug-25 05:27N 35°28' E 139°54'0 0.0
2015-Aug-25 04:33N 35°28' E 139°54'0 0.0
2015-Aug-25 03:27N 35°28' E 139°54'0 0.0
2015-Aug-25 02:33N 35°28' E 139°54'0 0.0
2015-Aug-25 01:33N 35°28' E 139°54'0 0.0
2015-Aug-25 00:27N 35°28' E 139°54'0 0.0
2015-Aug-24 23:33N 35°28' E 139°54'0 0.0
2015-Aug-24 22:33N 35°28' E 139°54'0 0.0
2015-Aug-24 21:30N 35°28' E 139°54'0 0.0
2015-Aug-24 20:33N 35°28' E 139°54'0 0.0
2015-Aug-24 19:33N 35°28' E 139°54'0 0.0
2015-Aug-24 18:33N 35°28' E 139°54'0 0.0
2015-Aug-24 17:33N 35°28' E 139°54'0 0.0
2015-Aug-24 16:33N 35°28' E 139°54'0 0.0
2015-Aug-24 15:33N 35°28' E 139°54'0 0.0
2015-Aug-24 14:33N 35°28' E 139°54'0 0.0
2015-Aug-24 13:30N 35°28' E 139°54'0 0.0
2015-Aug-24 12:33N 35°28' E 139°54'0 0.0
2015-Aug-24 11:33N 35°28' E 139°54'0 0.0
2015-Aug-24 10:30N 35°28' E 139°54'0 0.0
2015-Aug-24 09:33N 35°28' E 139°54'0 0.0
2015-Aug-24 08:33N 35°28' E 139°54'0 0.0
2015-Aug-24 07:33N 35°28' E 139°54'0 0.0
2015-Aug-24 06:33N 35°28' E 139°54'0 0.0
2015-Aug-24 05:33N 35°28' E 139°54'0 0.0
2015-Aug-24 04:27N 35°28' E 139°54'0 0.0
2015-Aug-24 03:33N 35°28' E 139°54'0 0.0
2015-Aug-24 02:33N 35°28' E 139°54'0 0.0
2015-Aug-24 01:33N 35°28' E 139°54'0 0.0
2015-Aug-24 00:33N 35°28' E 139°54'0 0.0
2015-Aug-23 23:33N 35°28' E 139°54'0 0.0
2015-Aug-23 22:33N 35°28' E 139°54'0 0.0
2015-Aug-23 21:33N 35°28' E 139°54'0 0.0
2015-Aug-23 20:27N 35°28' E 139°54'0 0.0
2015-Aug-23 19:33N 35°28' E 139°54'0 0.0
2015-Aug-23 18:33N 35°28' E 139°54'0 0.0
2015-Aug-23 17:33N 35°28' E 139°54'0 0.0
2015-Aug-23 16:30N 35°28' E 139°54'0 0.0
2015-Aug-23 15:33N 35°28' E 139°54'0 0.0
2015-Aug-23 14:30N 35°28' E 139°54'0 0.0
2015-Aug-23 13:33N 35°28' E 139°54'0 0.0
2015-Aug-23 12:33N 35°28' E 139°54'0 0.0
2015-Aug-23 11:33N 35°28' E 139°54'0 0.0
2015-Aug-23 10:33N 35°28' E 139°54'0 0.0
2015-Aug-23 09:27N 35°28' E 139°54'0 0.0
2015-Aug-23 08:33N 35°28' E 139°54'0 0.0
2015-Aug-23 07:33N 35°28' E 139°54'0 0.0
2015-Aug-23 06:30N 35°28' E 139°54'0 0.0
2015-Aug-23 05:33N 35°28' E 139°54'0 0.0
2015-Aug-23 04:27N 35°28' E 139°54'0 0.0
2015-Aug-23 03:18N 35°28' E 139°54'0 0.0
2015-Aug-23 02:33N 35°28' E 139°54'0 0.0
2015-Aug-23 01:33N 35°28' E 139°54'0 0.0
2015-Aug-23 00:33N 35°28' E 139°54'0 0.0
2015-Aug-22 23:33N 35°28' E 139°54'0 0.0
2015-Aug-22 22:18N 35°28' E 139°54'0 0.0
2015-Aug-22 21:27N 35°28' E 139°54'0 0.0
2015-Aug-22 20:33N 35°28' E 139°54'0 0.0
2015-Aug-22 19:27N 35°28' E 139°54'0 0.0
2015-Aug-22 18:33N 35°28' E 139°54'0 0.0
2015-Aug-22 17:33N 35°28' E 139°54'0 0.0
2015-Aug-22 16:33N 35°28' E 139°54'0 0.0
2015-Aug-22 15:33N 35°28' E 139°54'0 0.0
2015-Aug-22 14:33N 35°28' E 139°54'0 0.1
2015-Aug-22 13:33N 35°28' E 139°54'0 0.1
2015-Aug-22 12:33N 35°28' E 139°54'0 0.0
2015-Aug-22 11:33N 35°28' E 139°54'0 0.1
2015-Aug-22 10:27N 35°28' E 139°54'0 0.0
2015-Aug-22 09:33N 35°28' E 139°54'0 0.0
2015-Aug-22 08:33N 35°28' E 139°54'0 0.0
2015-Aug-22 07:33N 35°28' E 139°54'0 0.2
2015-Aug-22 06:33N 35°28' E 139°54'7 6.9
2015-Aug-22 05:33N 35°31' E 139°46'0 0.0
2015-Aug-22 04:33N 35°31' E 139°46'0 0.0
2015-Aug-22 03:33N 35°31' E 139°46'0 0.0
2015-Aug-22 02:33N 35°31' E 139°46'0 0.0
2015-Aug-22 01:33N 35°31' E 139°46'0 0.0
2015-Aug-22 00:33N 35°31' E 139°46'0 0.0
2015-Aug-21 23:33N 35°31' E 139°46'2 1.7
2015-Aug-21 22:33N 35°30' E 139°48'1 1.2
2015-Aug-21 21:33N 35°29' E 139°49'0 0.0
2015-Aug-21 20:33N 35°29' E 139°49'0 0.0
2015-Aug-21 19:33N 35°29' E 139°49'0 0.0
2015-Aug-21 18:33N 35°29' E 139°49'0 0.0
2015-Aug-21 17:33N 35°29' E 139°49'0 0.0
2015-Aug-21 16:33N 35°29' E 139°49'0 0.0
2015-Aug-21 15:33N 35°29' E 139°49'0 0.0
2015-Aug-21 14:33N 35°29' E 139°49'0 0.0
2015-Aug-21 13:33N 35°29' E 139°49'0 0.0
2015-Aug-21 12:33N 35°29' E 139°49'0 0.0
2015-Aug-21 11:33N 35°29' E 139°49'0 0.3
2015-Aug-21 10:33N 35°29' E 139°49'1211.8
2015-Aug-21 09:33N 35°18' E 139°45'1211.8
2015-Aug-21 08:34N 35°06' E 139°44'  

Dump ship's entire track history